createdAt,value
2022-08-18T00:00:54.821Z,65.02
2022-08-18T00:02:28.705Z,64.87
2022-08-18T00:03:57.392Z,64.87
2022-08-18T00:04:55.351Z,65.04
2022-08-18T00:05:58.965Z,64.62
2022-08-18T00:07:00.524Z,64.83
2022-08-18T00:08:02.525Z,65.24
2022-08-18T00:09:07.095Z,65.03
2022-08-18T00:10:15.590Z,65.15
2022-08-18T00:11:20.924Z,64.87
2022-08-18T00:12:25.237Z,65.36
2022-08-18T00:13:27.278Z,65.86
2022-08-18T00:14:29.433Z,65.68
2022-08-18T00:15:30.998Z,65.75
2022-08-18T00:16:32.719Z,65.93
2022-08-18T00:17:36.381Z,65.24
2022-08-18T00:18:37.970Z,65.01
2022-08-18T00:19:45.381Z,64.82
2022-08-18T00:20:48.887Z,64.81
2022-08-18T00:21:50.560Z,64.27
2022-08-18T00:22:53.259Z,64.12
2022-08-18T00:23:55.013Z,63.98
2022-08-18T00:24:57.618Z,63.80
2022-08-18T00:26:00.335Z,63.35
2022-08-18T00:27:02.245Z,63.41
2022-08-18T00:28:05.166Z,63.21
2022-08-18T00:29:06.764Z,63.08
2022-08-18T00:30:12.419Z,62.89
2022-08-18T00:31:13.981Z,62.79
2022-08-18T00:32:18.265Z,63.04
2022-08-18T00:33:19.849Z,62.30
2022-08-18T00:34:21.692Z,62.45
2022-08-18T00:35:29.054Z,62.07
2022-08-18T00:36:32.498Z,62.42
2022-08-18T00:37:34.764Z,62.24
2022-08-18T00:38:36.352Z,62.18
2022-08-18T00:39:38.857Z,63.21
2022-08-18T00:40:49.539Z,63.34
2022-08-18T00:41:51.153Z,63.40
2022-08-18T00:42:55.792Z,63.84
2022-08-18T00:44:00.337Z,63.47
2022-08-18T00:45:05.353Z,63.09
2022-08-18T00:46:11.839Z,63.52
2022-08-18T00:47:13.510Z,63.11
2022-08-18T00:48:35.452Z,63.71
2022-08-18T00:49:40.833Z,64.62
2022-08-18T00:50:57.931Z,65.98
2022-08-18T00:52:00.829Z,66.52
2022-08-18T00:53:10.941Z,67.97
2022-08-18T00:54:19.283Z,68.22
2022-08-18T00:55:22.552Z,68.24
2022-08-18T00:56:31.470Z,67.97
2022-08-18T00:57:34.113Z,68.12
2022-08-18T00:58:46.133Z,67.49
2022-08-18T01:00:04.488Z,67.30
2022-08-18T01:01:08.604Z,66.82
2022-08-18T01:02:19.245Z,66.35
2022-08-18T01:03:24.668Z,66.40
2022-08-18T01:04:35.741Z,66.36
2022-08-18T01:05:45.489Z,65.90
2022-08-18T01:06:55.002Z,65.92
2022-08-18T01:07:57.109Z,66.03
2022-08-18T01:08:59.326Z,65.60
2022-08-18T01:10:00.917Z,66.20
2022-08-18T01:11:03.322Z,65.67
2022-08-18T01:12:20.789Z,65.32
2022-08-18T01:13:29.694Z,65.01
2022-08-18T01:14:31.839Z,64.79
2022-08-18T01:15:34.027Z,64.82
2022-08-18T01:16:57.302Z,65.11
2022-08-18T01:18:21.983Z,65.25
2022-08-18T01:19:42.129Z,65.33
2022-08-18T01:21:22.033Z,66.37
2022-08-18T01:22:32.801Z,65.72
2022-08-18T01:23:36.828Z,66.28
2022-08-18T01:24:58.928Z,66.65
2022-08-18T01:26:00.728Z,67.70
2022-08-18T01:27:02.386Z,67.95
2022-08-18T01:28:05.368Z,68.24
2022-08-18T01:29:14.162Z,69.02
2022-08-18T01:30:25.413Z,69.24
2022-08-18T01:31:38.658Z,68.90
2022-08-18T01:32:41.714Z,69.50
2022-08-18T01:33:44.589Z,69.76
2022-08-18T01:34:52.051Z,69.40
2022-08-18T01:35:54.649Z,69.13
2022-08-18T01:36:57.378Z,68.03
2022-08-18T01:37:58.974Z,67.66
2022-08-18T01:39:00.678Z,68.35
2022-08-18T01:41:23.095Z,68.05
2022-08-18T01:41:31.106Z,68.21
2022-08-18T01:42:33.867Z,68.34
2022-08-18T01:43:37.407Z,68.17
2022-08-18T01:44:41.779Z,67.93
2022-08-18T01:45:44.050Z,67.93
2022-08-18T01:46:45.762Z,68.00
2022-08-18T01:47:48.615Z,67.49
2022-08-18T01:48:50.938Z,67.49
2022-08-18T01:49:53.356Z,67.01
2022-08-18T01:50:57.015Z,67.22
2022-08-18T01:51:58.625Z,67.47
2022-08-18T01:53:01.283Z,66.74
2022-08-18T01:54:04.507Z,66.33
2022-08-18T01:55:08.004Z,66.55
2022-08-18T01:56:09.618Z,66.19
2022-08-18T01:57:14.700Z,66.39
2022-08-18T01:58:16.344Z,66.69
2022-08-18T01:59:18.048Z,67.15
2022-08-18T02:00:19.731Z,67.70
2022-08-18T02:01:23.605Z,68.10
2022-08-18T02:02:38.918Z,67.86
2022-08-18T02:03:44.271Z,67.95
2022-08-18T02:04:47.597Z,67.90
2022-08-18T02:05:51.191Z,67.65
2022-08-18T02:06:53.264Z,67.90
2022-08-18T02:07:55.187Z,67.44
2022-08-18T02:08:56.793Z,67.33
2022-08-18T02:09:59.293Z,67.31
2022-08-18T02:11:01.309Z,67.60
2022-08-18T02:12:03.557Z,68.05
2022-08-18T02:13:05.995Z,68.55
2022-08-18T02:14:07.855Z,69.38
2022-08-18T02:15:10.802Z,69.46
2022-08-18T02:16:12.400Z,68.00
2022-08-18T02:17:14.566Z,68.92
2022-08-18T02:18:32.577Z,69.24
2022-08-18T02:19:43.870Z,69.41
2022-08-18T02:20:45.599Z,69.37
2022-08-18T02:21:47.212Z,69.74
2022-08-18T02:22:50.105Z,69.77
2022-08-18T02:23:53.027Z,70.01
2022-08-18T02:24:57.255Z,70.14
2022-08-18T02:25:59.163Z,70.32
2022-08-18T02:27:01.024Z,70.34
2022-08-18T02:28:03.315Z,70.46
2022-08-18T02:29:04.947Z,71.02
2022-08-18T02:30:09.972Z,70.92
2022-08-18T02:31:17.420Z,70.82
2022-08-18T02:32:19.383Z,73.38
2022-08-18T02:33:21.494Z,74.08
2022-08-18T02:34:23.571Z,73.65
2022-08-18T02:35:25.595Z,74.13
2022-08-18T02:36:28.437Z,72.73
2022-08-18T02:37:31.225Z,73.17
2022-08-18T02:38:33.728Z,74.14
2022-08-18T02:39:38.093Z,74.87
2022-08-18T02:40:39.718Z,74.14
2022-08-18T02:41:42.126Z,73.34
2022-08-18T02:42:45.567Z,73.43
2022-08-18T02:43:48.460Z,74.00
2022-08-18T02:44:50.419Z,75.01
2022-08-18T02:45:52.006Z,74.02
2022-08-18T02:46:54.739Z,74.21
2022-08-18T02:47:56.660Z,74.32
2022-08-18T02:49:00.559Z,74.28
2022-08-18T02:50:02.226Z,74.33
2022-08-18T02:51:14.919Z,74.26
2022-08-18T02:52:17.397Z,74.11
2022-08-18T02:53:25.096Z,74.06
2022-08-18T02:54:26.675Z,73.75
2022-08-18T02:55:29.387Z,73.34
2022-08-18T02:56:40.437Z,72.92
2022-08-18T02:57:45.917Z,72.63
2022-08-18T02:58:48.232Z,72.90
2022-08-18T02:59:49.810Z,73.39
2022-08-18T03:00:51.572Z,74.09
2022-08-18T03:01:56.453Z,73.94
2022-08-18T03:02:58.212Z,74.04
2022-08-18T03:04:01.083Z,74.67
2022-08-18T03:05:02.774Z,74.58
2022-08-18T03:06:05.029Z,74.40
2022-08-18T03:07:07.840Z,73.97
2022-08-18T03:08:10.545Z,73.61
2022-08-18T03:09:14.930Z,73.60
2022-08-18T03:10:32.350Z,73.15
2022-08-18T03:11:36.674Z,72.70
2022-08-18T03:12:38.282Z,72.58
2022-08-18T03:13:39.843Z,72.20
2022-08-18T03:14:41.670Z,71.96
2022-08-18T03:15:44.694Z,71.83
2022-08-18T03:16:54.046Z,71.40
2022-08-18T03:17:58.227Z,71.22
2022-08-18T03:19:01.776Z,71.28
2022-08-18T03:20:04.529Z,70.84
2022-08-18T03:21:12.424Z,71.28
2022-08-18T03:22:27.781Z,71.49
2022-08-18T03:23:31.138Z,71.24
2022-08-18T03:24:33.149Z,71.10
2022-08-18T03:25:34.880Z,70.77
2022-08-18T03:26:41.830Z,71.04
2022-08-18T03:27:43.487Z,70.63
2022-08-18T03:28:48.138Z,70.65
2022-08-18T03:29:51.135Z,70.37
2022-08-18T03:30:52.712Z,70.77
2022-08-18T03:31:54.487Z,70.62
2022-08-18T03:32:57.816Z,70.36
2022-08-18T03:34:01.628Z,70.43
2022-08-18T03:35:03.558Z,70.33
2022-08-18T03:36:07.842Z,70.54
2022-08-18T03:37:10.092Z,70.60
2022-08-18T03:38:11.821Z,70.40
2022-08-18T03:39:14.106Z,70.04
2022-08-18T03:40:15.765Z,70.25
2022-08-18T03:41:59.130Z,69.95
2022-08-18T03:42:42.110Z,69.96
2022-08-18T03:43:51.477Z,70.25
2022-08-18T03:44:53.299Z,69.42
2022-08-18T03:45:55.142Z,68.98
2022-08-18T03:46:57.498Z,68.45
2022-08-18T03:48:00.726Z,68.35
2022-08-18T03:49:02.570Z,68.03
2022-08-18T03:50:04.428Z,67.74
2022-08-18T03:51:09.290Z,68.02
2022-08-18T03:52:11.208Z,67.89
2022-08-18T03:53:12.892Z,67.50
2022-08-18T03:54:16.611Z,67.64
2022-08-18T03:55:19.099Z,67.32
2022-08-18T03:56:25.009Z,67.65
2022-08-18T03:57:26.576Z,67.71
2022-08-18T03:58:28.666Z,67.60
2022-08-18T03:59:32.240Z,68.19
2022-08-18T04:00:37.592Z,67.71
2022-08-18T04:01:42.135Z,68.07
2022-08-18T04:02:43.792Z,68.26
2022-08-18T04:03:48.199Z,68.93
2022-08-18T04:04:51.434Z,69.31
2022-08-18T04:05:53.091Z,69.53
2022-08-18T04:06:58.481Z,70.00
2022-08-18T04:08:00.340Z,70.59
2022-08-18T04:09:05.085Z,71.08
2022-08-18T04:10:07.029Z,70.48
2022-08-18T04:11:18.991Z,71.86
2022-08-18T04:12:20.594Z,71.43
2022-08-18T04:13:22.438Z,72.16
2022-08-18T04:14:30.609Z,73.53
2022-08-18T04:15:32.848Z,73.92
2022-08-18T04:16:35.137Z,75.01
2022-08-18T04:17:36.954Z,75.51
2022-08-18T04:19:07.807Z,76.38
2022-08-18T04:20:10.763Z,77.31
2022-08-18T04:21:13.741Z,77.23
2022-08-18T04:22:17.586Z,77.02
2022-08-18T04:23:21.190Z,76.70
2022-08-18T04:24:23.137Z,76.48
2022-08-18T04:25:30.760Z,76.34
2022-08-18T04:26:39.114Z,76.21
2022-08-18T04:27:42.830Z,75.92
2022-08-18T04:28:44.623Z,75.95
2022-08-18T04:29:47.420Z,76.39
2022-08-18T04:30:49.044Z,76.51
2022-08-18T04:31:52.017Z,76.43
2022-08-18T04:32:53.755Z,75.88
2022-08-18T04:33:56.948Z,75.39
2022-08-18T04:34:58.653Z,74.83
2022-08-18T04:36:18.727Z,74.33
2022-08-18T04:37:22.754Z,73.80
2022-08-18T04:38:24.517Z,73.45
2022-08-18T04:39:26.244Z,72.41
2022-08-18T04:40:27.861Z,71.39
2022-08-18T04:41:29.633Z,70.91
2022-08-18T04:42:31.456Z,69.84
2022-08-18T04:43:33.738Z,69.68
2022-08-18T04:44:37.901Z,68.63
2022-08-18T04:45:40.133Z,67.98
2022-08-18T04:46:46.288Z,67.87
2022-08-18T04:47:47.893Z,67.71
2022-08-18T04:48:50.814Z,67.40
2022-08-18T04:49:52.413Z,66.70
2022-08-18T04:50:54.301Z,66.06
2022-08-18T04:52:37.140Z,65.68
2022-08-18T04:53:46.103Z,63.93
2022-08-18T04:54:47.736Z,62.91
2022-08-18T04:55:54.989Z,62.59
2022-08-18T04:56:56.737Z,62.44
2022-08-18T04:57:59.452Z,61.79
2022-08-18T04:59:02.727Z,61.39
2022-08-18T05:00:06.513Z,60.83
2022-08-18T05:01:09.973Z,60.71
2022-08-18T05:02:14.962Z,60.51
2022-08-18T05:03:16.666Z,60.44
2022-08-18T05:04:18.262Z,60.16
2022-08-18T05:05:20.062Z,59.64
2022-08-18T05:06:27.018Z,58.69
2022-08-18T05:07:28.648Z,58.21
2022-08-18T05:08:31.217Z,57.09
2022-08-18T05:09:41.296Z,57.18
2022-08-18T05:10:43.126Z,56.75
2022-08-18T05:11:44.728Z,56.14
2022-08-18T05:12:48.415Z,55.94
2022-08-18T05:13:52.233Z,56.18
2022-08-18T05:14:57.184Z,56.16
2022-08-18T05:16:16.701Z,55.72
2022-08-18T05:17:21.188Z,55.51
2022-08-18T05:18:26.674Z,55.84
2022-08-18T05:19:29.059Z,55.27
2022-08-18T05:20:31.858Z,54.94
2022-08-18T05:21:34.587Z,54.01
2022-08-18T05:22:41.190Z,53.74
2022-08-18T05:23:44.337Z,53.71
2022-08-18T05:24:46.041Z,53.16
2022-08-18T05:25:47.739Z,52.70
2022-08-18T05:26:55.915Z,53.05
2022-08-18T05:27:57.651Z,53.43
2022-08-18T05:29:04.199Z,52.71
2022-08-18T05:30:19.891Z,52.01
2022-08-18T05:31:26.271Z,52.24
2022-08-18T05:32:48.147Z,51.54
2022-08-18T05:33:53.015Z,50.77
2022-08-18T05:34:54.671Z,50.38
2022-08-18T05:36:05.852Z,50.88
2022-08-18T05:37:47.569Z,51.22
2022-08-18T05:39:11.531Z,53.22
2022-08-18T05:40:14.592Z,53.66
2022-08-18T05:41:41.659Z,53.74
2022-08-18T05:42:43.772Z,53.89
2022-08-18T05:43:51.938Z,53.69
2022-08-18T05:44:55.738Z,52.90
2022-08-18T05:45:59.614Z,52.26
2022-08-18T05:47:06.595Z,52.10
2022-08-18T05:48:08.218Z,52.79
2022-08-18T05:49:11.071Z,51.70
2022-08-18T05:50:17.373Z,52.27
2022-08-18T05:51:33.831Z,51.32
2022-08-18T05:52:56.132Z,51.11
2022-08-18T05:54:17.166Z,50.21
2022-08-18T05:55:58.318Z,49.73
2022-08-18T05:57:05.540Z,49.26
2022-08-18T05:58:15.848Z,49.69
2022-08-18T05:59:28.811Z,49.53
2022-08-18T06:00:31.755Z,49.26
2022-08-18T06:01:41.523Z,48.82
2022-08-18T06:03:11.291Z,48.79
2022-08-18T06:04:34.470Z,48.42
2022-08-18T06:05:44.801Z,48.08
2022-08-18T06:06:52.857Z,47.73
2022-08-18T06:08:06.050Z,47.87
2022-08-18T06:09:26.062Z,47.26
2022-08-18T06:10:27.944Z,46.89
2022-08-18T06:11:29.664Z,46.63
2022-08-18T06:12:46.599Z,45.92
2022-08-18T06:13:49.895Z,45.52
2022-08-18T06:15:05.895Z,45.66
2022-08-18T06:16:41.866Z,45.60
2022-08-18T06:18:04.777Z,45.21
2022-08-18T06:19:36.286Z,44.94
2022-08-18T06:21:11.896Z,44.95
2022-08-18T06:22:32.519Z,44.76
2022-08-18T06:24:15.722Z,44.96
2022-08-18T06:25:25.732Z,45.31
2022-08-18T06:26:45.909Z,45.09
2022-08-18T06:28:08.434Z,44.82
2022-08-18T06:29:25.274Z,45.26
2022-08-18T06:30:42.080Z,45.84
2022-08-18T06:32:10.334Z,45.45
2022-08-18T06:33:34.669Z,45.34
2022-08-18T06:34:47.614Z,47.13
2022-08-18T06:35:55.138Z,48.20
2022-08-18T06:37:24.363Z,48.35
2022-08-18T06:38:45.503Z,47.59
2022-08-18T06:39:50.898Z,47.33
2022-08-18T06:41:07.836Z,47.83
2022-08-18T06:42:09.588Z,48.61
2022-08-18T06:43:15.940Z,48.40
2022-08-18T06:44:32.467Z,47.93
2022-08-18T06:45:40.048Z,47.46
2022-08-18T06:46:56.077Z,46.58
2022-08-18T06:48:06.011Z,45.69
2022-08-18T06:49:39.953Z,46.11
2022-08-18T06:51:00.875Z,45.27
2022-08-18T06:52:26.450Z,44.35
2022-08-18T06:53:55.545Z,43.58
2022-08-18T06:55:00.786Z,43.50
2022-08-18T06:56:26.194Z,42.88
2022-08-18T06:57:41.022Z,42.21
2022-08-18T06:58:42.633Z,42.16
2022-08-18T06:59:55.749Z,41.72
2022-08-18T07:01:02.491Z,42.15
2022-08-18T07:02:26.862Z,41.86
2022-08-18T07:03:37.912Z,42.72
2022-08-18T07:04:58.058Z,43.25
2022-08-18T07:06:11.586Z,43.10
2022-08-18T07:07:17.503Z,42.51
2022-08-18T07:08:30.775Z,43.33
2022-08-18T07:09:34.219Z,42.47
2022-08-18T07:10:42.059Z,42.19
2022-08-18T07:12:04.309Z,41.59
2022-08-18T07:13:14.558Z,41.33
2022-08-18T07:14:25.713Z,41.17
2022-08-18T07:15:27.334Z,41.09
2022-08-18T07:16:54.462Z,41.29
2022-08-18T07:17:50.706Z,42.82
2022-08-18T07:18:52.618Z,43.73
2022-08-18T07:20:01.025Z,44.29
2022-08-18T07:21:02.708Z,44.38
2022-08-18T07:22:17.423Z,44.09
2022-08-18T07:23:25.408Z,43.39
2022-08-18T07:24:34.204Z,43.93
2022-08-18T07:25:44.293Z,43.69
2022-08-18T07:27:05.908Z,44.19
2022-08-18T07:28:07.653Z,44.69
2022-08-18T07:29:16.111Z,44.24
2022-08-18T07:30:19.292Z,44.44
2022-08-18T07:31:42.912Z,44.41
2022-08-18T07:33:05.221Z,45.01
2022-08-18T07:34:21.740Z,44.20
2022-08-18T07:35:31.229Z,43.79
2022-08-18T07:36:50.207Z,43.44
2022-08-18T07:37:56.839Z,43.27
2022-08-18T07:39:15.567Z,43.39
2022-08-18T07:40:31.595Z,43.07
2022-08-18T07:41:50.869Z,43.12
2022-08-18T07:43:03.872Z,42.88
2022-08-18T07:44:13.997Z,42.52
2022-08-18T07:45:24.075Z,42.38
2022-08-18T07:46:45.454Z,41.96
2022-08-18T07:47:53.301Z,41.68
2022-08-18T07:48:56.568Z,41.33
2022-08-18T07:50:16.957Z,41.28
2022-08-18T07:51:43.434Z,41.33
2022-08-18T07:52:59.570Z,41.44
2022-08-18T07:54:48.960Z,42.02
2022-08-18T07:55:56.035Z,41.42
2022-08-18T07:57:04.197Z,41.55
2022-08-18T07:58:14.720Z,40.76
2022-08-18T07:59:24.432Z,40.74
2022-08-18T08:01:02.081Z,40.57
2022-08-18T08:02:15.720Z,40.53
2022-08-18T08:03:47.230Z,40.17
2022-08-18T08:05:10.000Z,40.04
2022-08-18T08:06:37.840Z,40.21
2022-08-18T08:08:25.274Z,39.83
2022-08-18T08:09:58.793Z,39.16
2022-08-18T08:11:06.662Z,39.16
2022-08-18T08:12:31.606Z,39.18
2022-08-18T08:13:56.406Z,39.12
2022-08-18T08:15:12.632Z,38.77
2022-08-18T08:16:26.368Z,38.42
2022-08-18T08:17:43.085Z,38.88
2022-08-18T08:18:54.946Z,39.09
2022-08-18T08:20:08.447Z,39.65
2022-08-18T08:21:19.966Z,39.53
2022-08-18T08:22:43.305Z,40.32
2022-08-18T08:23:54.401Z,40.63
2022-08-18T08:25:42.817Z,39.75
2022-08-18T08:26:57.438Z,39.25
2022-08-18T08:28:14.382Z,39.64
2022-08-18T08:29:33.929Z,40.61
2022-08-18T08:31:33.096Z,40.94
2022-08-18T08:32:48.300Z,40.31
2022-08-18T08:34:14.175Z,39.68
2022-08-18T08:35:48.868Z,39.55
2022-08-18T08:36:46.897Z,40.06
2022-08-18T08:38:38.771Z,39.39
2022-08-18T08:39:45.307Z,38.70
2022-08-18T08:40:51.325Z,38.23
2022-08-18T08:42:29.735Z,38.24
2022-08-18T08:43:26.043Z,37.47
2022-08-18T08:44:35.197Z,37.35
2022-08-18T08:45:59.654Z,37.57
2022-08-18T08:47:10.621Z,37.81
2022-08-18T08:48:25.281Z,37.90
2022-08-18T08:49:35.878Z,38.34
2022-08-18T08:50:59.798Z,39.02
2022-08-18T08:52:19.005Z,39.59
2022-08-18T08:53:29.918Z,38.91
2022-08-18T08:54:46.666Z,38.96
2022-08-18T08:55:55.044Z,38.77
2022-08-18T08:57:01.339Z,38.19
2022-08-18T08:58:21.661Z,38.34
2022-08-18T08:59:26.353Z,37.89
2022-08-18T09:00:29.397Z,37.60
2022-08-18T09:01:37.554Z,38.35
2022-08-18T09:03:31.573Z,38.29
2022-08-18T09:05:09.475Z,38.14
2022-08-18T09:06:30.373Z,38.08
2022-08-18T09:07:42.070Z,38.81
2022-08-18T09:09:02.145Z,38.97
2022-08-18T09:10:18.592Z,38.50
2022-08-18T09:11:41.506Z,37.80
2022-08-18T09:12:54.704Z,38.16
2022-08-18T09:14:17.879Z,37.83
2022-08-18T09:15:34.813Z,38.38
2022-08-18T09:16:52.794Z,38.58
2022-08-18T09:18:13.000Z,37.59
2022-08-18T09:19:20.405Z,38.26
2022-08-18T09:20:49.489Z,38.00
2022-08-18T09:21:59.183Z,38.71
2022-08-18T09:23:41.263Z,37.83
2022-08-18T09:24:51.065Z,37.79
2022-08-18T09:25:56.624Z,38.05
2022-08-18T09:27:23.040Z,38.19
2022-08-18T09:28:27.947Z,37.53
2022-08-18T09:29:44.129Z,37.93
2022-08-18T09:31:08.747Z,37.38
2022-08-18T09:32:19.512Z,37.98
2022-08-18T09:33:45.783Z,37.71
2022-08-18T09:36:40.234Z,37.98
2022-08-18T09:38:12.548Z,37.36
2022-08-18T09:39:54.537Z,36.70
2022-08-18T09:41:24.664Z,36.93
2022-08-18T09:42:48.447Z,37.84
2022-08-18T09:44:12.103Z,37.22
2022-08-18T09:45:33.640Z,36.84
2022-08-18T09:46:46.456Z,36.40
2022-08-18T09:48:02.790Z,36.57
2022-08-18T09:49:26.619Z,36.10
2022-08-18T09:50:28.546Z,35.80
2022-08-18T09:51:40.092Z,35.43
2022-08-18T09:52:42.816Z,36.35
2022-08-18T09:53:46.068Z,36.37
2022-08-18T09:54:58.956Z,35.68
2022-08-18T09:56:05.062Z,36.20
2022-08-18T09:57:24.486Z,36.11
2022-08-18T09:58:26.331Z,34.64
2022-08-18T09:59:34.462Z,34.32
2022-08-18T10:00:36.306Z,33.55
2022-08-18T10:01:41.970Z,34.38
2022-08-18T10:02:50.438Z,35.60
2022-08-18T10:04:14.073Z,35.40
2022-08-18T10:05:15.950Z,35.96
2022-08-18T10:06:19.415Z,34.97
2022-08-18T10:07:41.993Z,36.10
2022-08-18T10:12:46.626Z,35.31
2022-08-18T10:13:52.017Z,34.10
2022-08-18T10:15:32.882Z,34.34
2022-08-18T10:17:24.447Z,35.10
2022-08-18T10:18:28.907Z,35.22
2022-08-18T10:19:42.870Z,34.49
2022-08-18T10:20:47.902Z,34.52
2022-08-18T10:21:58.593Z,33.68
2022-08-18T10:23:00.938Z,32.97
2022-08-18T10:24:32.169Z,33.45
2022-08-18T10:25:38.091Z,32.29
2022-08-18T10:26:54.250Z,32.31
2022-08-18T10:27:57.346Z,32.92
2022-08-18T10:29:03.913Z,33.69
2022-08-18T10:30:34.646Z,33.83
2022-08-18T10:31:55.378Z,33.88
2022-08-18T10:32:58.101Z,34.39
2022-08-18T10:34:16.046Z,34.28
2022-08-18T10:35:36.899Z,33.90
2022-08-18T10:36:46.119Z,34.83
2022-08-18T10:37:49.240Z,34.42
2022-08-18T10:38:53.579Z,34.08
2022-08-18T10:45:00.698Z,34.46
2022-08-18T10:46:30.583Z,34.38
2022-08-18T10:47:33.475Z,34.39
2022-08-18T10:48:35.752Z,34.24
2022-08-18T10:49:46.925Z,33.93
2022-08-18T10:51:21.378Z,34.37
2022-08-18T10:52:35.290Z,34.85
2022-08-18T10:53:48.323Z,32.56
2022-08-18T10:55:10.194Z,32.91
2022-08-18T10:56:28.450Z,32.29
2022-08-18T10:57:41.241Z,32.61
2022-08-18T10:59:08.322Z,32.58
2022-08-18T11:00:20.353Z,32.09
2022-08-18T11:01:45.144Z,31.89
2022-08-18T11:03:13.903Z,32.14
2022-08-18T11:04:34.118Z,32.21
2022-08-18T11:05:38.231Z,32.19
2022-08-18T11:06:49.011Z,32.93
2022-08-18T11:07:58.747Z,32.42
2022-08-18T11:09:02.611Z,31.78
2022-08-18T11:10:57.990Z,31.46
2022-08-18T11:11:52.517Z,32.05
2022-08-18T11:14:37.430Z,29.99
2022-08-18T11:16:13.582Z,29.77
2022-08-18T11:17:47.990Z,30.15
2022-08-18T11:18:58.314Z,29.46
2022-08-18T11:20:01.973Z,29.57
2022-08-18T11:21:30.572Z,29.60
2022-08-18T11:22:35.666Z,29.56
2022-08-18T11:23:37.351Z,30.04
2022-08-18T11:24:44.935Z,29.70
2022-08-18T11:25:48.393Z,29.32
2022-08-18T11:27:03.048Z,28.86
2022-08-18T11:28:15.594Z,29.66
2022-08-18T11:29:37.899Z,29.94
2022-08-18T11:30:44.000Z,29.90
2022-08-18T11:31:52.729Z,29.21
2022-08-18T11:32:55.531Z,29.83
2022-08-18T11:33:57.431Z,30.34
2022-08-18T11:34:59.553Z,30.19
2022-08-18T11:36:01.734Z,29.86
2022-08-18T11:37:49.260Z,30.30
2022-08-18T11:38:56.603Z,30.38
2022-08-18T11:40:02.235Z,29.48
2022-08-18T11:41:19.302Z,29.67
2022-08-18T11:42:29.301Z,30.13
2022-08-18T11:45:05.050Z,30.30
2022-08-18T11:46:28.127Z,30.38
2022-08-18T11:47:33.585Z,30.30
2022-08-18T11:48:42.420Z,30.03
2022-08-18T11:50:09.332Z,30.36
2022-08-18T11:51:24.137Z,31.12
2022-08-18T11:52:34.094Z,29.79
2022-08-18T11:53:58.029Z,30.65
2022-08-18T11:55:16.449Z,30.71
2022-08-18T11:56:38.181Z,31.05
2022-08-18T11:57:51.527Z,30.30
2022-08-18T11:58:58.077Z,30.03
2022-08-18T12:00:00.930Z,30.26
2022-08-18T12:01:03.270Z,30.59
2022-08-18T12:02:07.027Z,30.07
2022-08-18T12:03:15.419Z,29.77
2022-08-18T12:04:22.077Z,29.49
2022-08-18T12:05:23.701Z,28.66
2022-08-18T12:06:29.858Z,28.71
2022-08-18T12:07:35.218Z,29.39
2022-08-18T12:08:57.949Z,29.64
2022-08-18T12:10:21.129Z,29.97
2022-08-18T12:11:41.166Z,30.21
2022-08-18T12:12:53.539Z,29.71
2022-08-18T12:14:30.313Z,28.90
2022-08-18T12:15:43.671Z,28.98
2022-08-18T12:16:50.252Z,29.25
2022-08-18T12:17:53.664Z,30.19
2022-08-18T12:18:55.641Z,29.99
2022-08-18T12:19:59.838Z,29.79
2022-08-18T12:21:03.034Z,30.33
2022-08-18T12:22:17.701Z,30.51
2022-08-18T12:23:19.348Z,31.01
2022-08-18T12:24:26.326Z,29.99
2022-08-18T12:25:30.961Z,30.47
2022-08-18T12:26:38.487Z,30.06
2022-08-18T12:27:45.304Z,29.75
2022-08-18T12:28:48.113Z,29.61
2022-08-18T12:29:54.075Z,30.12
2022-08-18T12:30:57.485Z,30.63
2022-08-18T12:31:59.248Z,30.52
2022-08-18T12:35:48.280Z,29.67
2022-08-18T12:36:52.117Z,30.23
2022-08-18T12:37:59.635Z,30.80
2022-08-18T12:39:05.184Z,30.10
2022-08-18T12:40:08.666Z,29.92
2022-08-18T12:41:12.100Z,29.78
2022-08-18T12:42:14.464Z,29.74
2022-08-18T12:43:16.088Z,30.01
2022-08-18T12:44:18.365Z,29.61
2022-08-18T12:45:22.975Z,29.37
2022-08-18T12:46:25.561Z,29.51
2022-08-18T12:47:31.061Z,29.87
2022-08-18T12:48:32.969Z,29.91
2022-08-18T12:49:36.325Z,30.11
2022-08-18T12:52:03.553Z,30.01
2022-08-18T12:53:05.770Z,30.81
2022-08-18T12:54:07.503Z,30.76
2022-08-18T12:55:21.652Z,30.81
2022-08-18T12:56:30.538Z,30.61
2022-08-18T12:57:51.770Z,30.63
2022-08-18T12:58:54.779Z,30.15
2022-08-18T12:59:56.945Z,29.98
2022-08-18T13:00:59.702Z,29.32
2022-08-18T13:02:02.196Z,28.92
2022-08-18T13:03:04.021Z,28.90
2022-08-18T13:05:30.031Z,29.46
2022-08-18T13:06:35.669Z,29.05
2022-08-18T13:07:37.250Z,29.33
2022-08-18T13:08:49.910Z,29.19
2022-08-18T13:09:53.800Z,29.94
2022-08-18T13:10:56.428Z,29.71
2022-08-18T13:12:00.136Z,30.20
2022-08-18T13:13:01.932Z,29.92
2022-08-18T13:14:08.652Z,30.24
2022-08-18T13:15:11.324Z,30.32
2022-08-18T13:16:16.326Z,29.65
2022-08-18T13:17:34.296Z,29.54
2022-08-18T13:18:37.720Z,30.25
2022-08-18T13:19:39.445Z,29.81
2022-08-18T13:20:45.104Z,29.67
2022-08-18T13:21:47.461Z,29.81
2022-08-18T13:22:51.210Z,29.59
2022-08-18T13:23:55.123Z,30.17
2022-08-18T13:24:56.811Z,30.01
2022-08-18T13:26:02.038Z,30.05
2022-08-18T13:27:18.573Z,29.79
2022-08-18T13:28:25.041Z,30.30
2022-08-18T13:29:32.136Z,30.22
2022-08-18T13:30:35.512Z,29.78
2022-08-18T13:31:38.865Z,29.58
2022-08-18T13:32:47.120Z,29.24
2022-08-18T13:34:00.843Z,29.97
2022-08-18T13:35:13.366Z,30.31
2022-08-18T13:36:15.373Z,30.03
2022-08-18T13:37:18.202Z,29.81
2022-08-18T13:38:27.252Z,29.82
2022-08-18T13:39:31.300Z,29.79
2022-08-18T13:40:37.520Z,29.56
2022-08-18T13:41:49.721Z,29.49
2022-08-18T13:42:51.844Z,29.78
2022-08-18T13:43:53.485Z,29.90
2022-08-18T13:44:59.398Z,29.57
2022-08-18T13:46:29.959Z,30.35
2022-08-18T13:47:38.214Z,30.04
2022-08-18T13:48:41.770Z,28.85
2022-08-18T13:49:43.528Z,28.93
2022-08-18T13:51:02.000Z,28.89
2022-08-18T13:52:05.588Z,29.18
2022-08-18T13:53:21.271Z,28.94
2022-08-18T13:54:31.434Z,29.23
2022-08-18T13:55:33.501Z,29.15
2022-08-18T13:56:36.833Z,29.05
2022-08-18T13:57:48.243Z,28.65
2022-08-18T13:58:53.376Z,28.36
2022-08-18T13:59:55.296Z,28.95
2022-08-18T14:01:39.489Z,28.11
2022-08-18T14:02:26.889Z,28.09
2022-08-18T14:03:42.136Z,28.02
2022-08-18T14:04:49.396Z,28.25
2022-08-18T14:06:00.570Z,27.87
2022-08-18T14:07:07.217Z,28.15
2022-08-18T14:08:12.582Z,28.41
2022-08-18T14:09:27.713Z,28.65
2022-08-18T14:10:38.559Z,28.21
2022-08-18T14:11:41.817Z,28.45
2022-08-18T14:12:44.936Z,28.74
2022-08-18T14:13:48.869Z,28.49
2022-08-18T14:14:52.808Z,28.54
2022-08-18T14:15:56.677Z,28.92
2022-08-18T14:16:59.353Z,29.38
2022-08-18T14:18:00.969Z,29.09
2022-08-18T14:19:26.514Z,28.31
2022-08-18T14:20:48.808Z,27.33
2022-08-18T14:22:13.232Z,27.70
2022-08-18T14:23:34.173Z,27.78
2022-08-18T14:24:55.748Z,27.05
2022-08-18T14:26:16.338Z,27.45
2022-08-18T14:27:24.220Z,28.15
2022-08-18T14:28:32.336Z,28.78
2022-08-18T14:29:46.248Z,28.39
2022-08-18T14:30:50.703Z,28.48
2022-08-18T14:31:57.406Z,28.95
2022-08-18T14:32:59.535Z,29.13
2022-08-18T14:34:04.346Z,28.80
2022-08-18T14:36:03.863Z,28.45
2022-08-18T14:36:30.602Z,28.39
2022-08-18T14:37:33.898Z,28.20
2022-08-18T14:38:36.625Z,28.28
2022-08-18T14:39:39.950Z,27.41
2022-08-18T14:40:44.632Z,28.38
2022-08-18T14:41:49.383Z,28.03
2022-08-18T14:42:56.537Z,27.66
2022-08-18T14:44:13.646Z,27.78
2022-08-18T14:45:17.797Z,28.15
2022-08-18T14:46:30.617Z,28.20
2022-08-18T14:47:34.489Z,28.04
2022-08-18T14:48:39.146Z,28.42
2022-08-18T14:49:48.154Z,27.95
2022-08-18T14:50:55.342Z,28.37
2022-08-18T14:52:01.272Z,27.90
2022-08-18T14:53:03.018Z,28.03
2022-08-18T14:54:04.625Z,28.42
2022-08-18T14:55:09.203Z,27.84
2022-08-18T14:56:12.265Z,28.45
2022-08-18T14:57:15.091Z,27.72
2022-08-18T14:58:16.893Z,28.33
2022-08-18T14:59:20.505Z,27.63
2022-08-18T15:00:22.842Z,27.52
2022-08-18T15:01:26.616Z,27.73
2022-08-18T15:02:28.543Z,28.18
2022-08-18T15:03:31.853Z,28.01
2022-08-18T15:04:33.838Z,28.07
2022-08-18T15:05:40.213Z,28.16
2022-08-18T15:06:44.078Z,27.92
2022-08-18T15:07:58.845Z,27.87
2022-08-18T15:09:00.521Z,28.22
2022-08-18T15:10:15.253Z,27.76
2022-08-18T15:11:18.177Z,27.47
2022-08-18T15:12:25.230Z,27.47
2022-08-18T15:13:26.943Z,27.64
2022-08-18T15:14:37.570Z,27.30
2022-08-18T15:15:50.516Z,27.64